sensor_id;sensor_type;location;lat;lon;timestamp;P1;durP1;ratioP1;P2;durP2;ratioP2
5052;SDS011;2545;50.892;5.740;2023-11-21T07:03:16;111.53;;;30.30;;
5052;SDS011;2545;50.892;5.740;2023-11-21T07:05:44;93.50;;;28.07;;
5052;SDS011;2545;50.892;5.740;2023-11-21T07:08:09;88.27;;;28.10;;
5052;SDS011;2545;50.892;5.740;2023-11-21T07:10:35;74.53;;;25.93;;
5052;SDS011;2545;50.892;5.740;2023-11-21T07:13:01;77.63;;;24.10;;
5052;SDS011;2545;50.892;5.740;2023-11-21T07:15:27;69.27;;;21.77;;
5052;SDS011;2545;50.892;5.740;2023-11-21T07:17:53;86.70;;;24.63;;
5052;SDS011;2545;50.892;5.740;2023-11-21T07:20:19;72.47;;;22.53;;
5052;SDS011;2545;50.892;5.740;2023-11-21T07:22:44;71.57;;;23.03;;
5052;SDS011;2545;50.892;5.740;2023-11-21T07:25:10;70.97;;;24.70;;
5052;SDS011;2545;50.892;5.740;2023-11-21T07:27:36;74.50;;;22.90;;
5052;SDS011;2545;50.892;5.740;2023-11-21T07:30:02;77.33;;;23.33;;
5052;SDS011;2545;50.892;5.740;2023-11-21T07:32:31;80.63;;;23.70;;
5052;SDS011;2545;50.892;5.740;2023-11-21T07:34:57;81.87;;;25.93;;
5052;SDS011;2545;50.892;5.740;2023-11-21T07:37:24;100.43;;;25.90;;
5052;SDS011;2545;50.892;5.740;2023-11-21T07:39:51;84.63;;;25.60;;
5052;SDS011;2545;50.892;5.740;2023-11-21T07:42:21;115.87;;;27.97;;
5052;SDS011;2545;50.892;5.740;2023-11-21T07:44:48;108.07;;;27.20;;
5052;SDS011;2545;50.892;5.740;2023-11-21T07:47:15;92.00;;;26.97;;
5052;SDS011;2545;50.892;5.740;2023-11-21T07:49:40;91.50;;;25.67;;
5052;SDS011;2545;50.892;5.740;2023-11-21T07:52:08;94.10;;;24.50;;
5052;SDS011;2545;50.892;5.740;2023-11-21T07:54:34;96.13;;;25.17;;
5052;SDS011;2545;50.892;5.740;2023-11-21T07:57:00;94.20;;;23.77;;
5052;SDS011;2545;50.892;5.740;2023-11-21T07:59:26;104.67;;;24.50;;
5052;SDS011;2545;50.892;5.740;2023-11-21T08:01:52;96.23;;;26.40;;
5052;SDS011;2545;50.892;5.740;2023-11-21T08:04:17;106.13;;;25.60;;
5052;SDS011;2545;50.892;5.740;2023-11-21T08:06:43;75.03;;;23.27;;
5052;SDS011;2545;50.892;5.740;2023-11-21T08:09:09;103.97;;;26.37;;
5052;SDS011;2545;50.892;5.740;2023-11-21T08:11:37;93.30;;;24.93;;
5052;SDS011;2545;50.892;5.740;2023-11-21T08:14:04;106.40;;;26.83;;
5052;SDS011;2545;50.892;5.740;2023-11-21T08:16:30;110.90;;;27.10;;
5052;SDS011;2545;50.892;5.740;2023-11-21T08:18:56;90.10;;;23.53;;
5052;SDS011;2545;50.892;5.740;2023-11-21T08:21:22;77.67;;;21.80;;
5052;SDS011;2545;50.892;5.740;2023-11-21T08:23:49;94.00;;;23.83;;
5052;SDS011;2545;50.892;5.740;2023-11-21T08:26:19;69.97;;;21.30;;
5052;SDS011;2545;50.892;5.740;2023-11-21T08:28:45;77.30;;;21.90;;
5052;SDS011;2545;50.892;5.740;2023-11-21T08:31:10;67.43;;;20.50;;
5052;SDS011;2545;50.892;5.740;2023-11-21T08:33:36;58.13;;;19.93;;
5052;SDS011;2545;50.892;5.740;2023-11-21T08:36:06;59.40;;;20.40;;
5052;SDS011;2545;50.892;5.740;2023-11-21T08:38:32;72.13;;;20.90;;
5052;SDS011;2545;50.892;5.740;2023-11-21T08:40:58;74.67;;;21.27;;
5052;SDS011;2545;50.892;5.740;2023-11-21T08:43:25;64.67;;;18.57;;
5052;SDS011;2545;50.892;5.740;2023-11-21T08:45:52;64.07;;;19.67;;
5052;SDS011;2545;50.892;5.740;2023-11-21T08:48:17;67.27;;;23.00;;
5052;SDS011;2545;50.892;5.740;2023-11-21T08:50:43;58.33;;;20.13;;
5052;SDS011;2545;50.892;5.740;2023-11-21T08:53:08;48.93;;;18.60;;
5052;SDS011;2545;50.892;5.740;2023-11-21T08:55:36;69.40;;;20.50;;
5052;SDS011;2545;50.892;5.740;2023-11-21T08:58:02;64.93;;;20.57;;
5052;SDS011;2545;50.892;5.740;2023-11-21T09:00:30;58.20;;;20.30;;
5052;SDS011;2545;50.892;5.740;2023-11-21T09:02:55;60.93;;;22.30;;
5052;SDS011;2545;50.892;5.740;2023-11-21T09:05:22;76.13;;;21.27;;
5052;SDS011;2545;50.892;5.740;2023-11-21T09:07:47;66.40;;;21.90;;
5052;SDS011;2545;50.892;5.740;2023-11-21T09:10:13;65.03;;;20.17;;
5052;SDS011;2545;50.892;5.740;2023-11-21T09:12:39;82.23;;;26.17;;
5052;SDS011;2545;50.892;5.740;2023-11-21T09:15:06;77.70;;;22.40;;
5052;SDS011;2545;50.892;5.740;2023-11-21T09:17:32;83.53;;;23.17;;
5052;SDS011;2545;50.892;5.740;2023-11-21T09:19:59;68.70;;;21.97;;
5052;SDS011;2545;50.892;5.740;2023-11-21T09:22:25;72.00;;;22.43;;
5052;SDS011;2545;50.892;5.740;2023-11-21T09:24:51;66.57;;;23.80;;
5052;SDS011;2545;50.892;5.740;2023-11-21T09:27:17;64.73;;;22.93;;
5052;SDS011;2545;50.892;5.740;2023-11-21T09:29:42;67.40;;;22.67;;
5052;SDS011;2545;50.892;5.740;2023-11-21T09:32:08;67.23;;;21.60;;
5052;SDS011;2545;50.892;5.740;2023-11-21T09:34:35;71.67;;;23.60;;
5052;SDS011;2545;50.892;5.740;2023-11-21T09:37:03;76.83;;;22.23;;
5052;SDS011;2545;50.892;5.740;2023-11-21T09:39:30;81.20;;;22.50;;
5052;SDS011;2545;50.892;5.740;2023-11-21T09:42:08;66.17;;;21.40;;
5052;SDS011;2545;50.892;5.740;2023-11-21T09:44:46;68.37;;;21.53;;
5052;SDS011;2545;50.892;5.740;2023-11-21T09:47:29;82.20;;;21.67;;
5052;SDS011;2545;50.892;5.740;2023-11-21T09:49:55;63.90;;;20.13;;
5052;SDS011;2545;50.892;5.740;2023-11-21T09:52:22;62.63;;;21.27;;
5052;SDS011;2545;50.892;5.740;2023-11-21T09:54:50;61.03;;;19.47;;
5052;SDS011;2545;50.892;5.740;2023-11-21T09:57:18;65.63;;;18.87;;
5052;SDS011;2545;50.892;5.740;2023-11-21T09:59:49;63.60;;;20.60;;
5052;SDS011;2545;50.892;5.740;2023-11-21T10:02:20;58.60;;;20.50;;
5052;SDS011;2545;50.892;5.740;2023-11-21T10:04:47;65.33;;;21.70;;
5052;SDS011;2545;50.892;5.740;2023-11-21T10:07:13;71.77;;;23.53;;
5052;SDS011;2545;50.892;5.740;2023-11-21T10:09:42;77.10;;;23.43;;
5052;SDS011;2545;50.892;5.740;2023-11-21T10:12:08;76.77;;;23.40;;
5052;SDS011;2545;50.892;5.740;2023-11-21T10:14:37;82.17;;;23.40;;
5052;SDS011;2545;50.892;5.740;2023-11-21T10:17:07;67.93;;;21.90;;
5052;SDS011;2545;50.892;5.740;2023-11-21T10:19:37;67.97;;;21.50;;
5052;SDS011;2545;50.892;5.740;2023-11-21T10:22:03;61.63;;;22.13;;
5052;SDS011;2545;50.892;5.740;2023-11-21T10:24:29;76.90;;;25.70;;
5052;SDS011;2545;50.892;5.740;2023-11-21T10:26:54;67.97;;;23.97;;
5052;SDS011;2545;50.892;5.740;2023-11-21T10:29:20;75.57;;;22.50;;
5052;SDS011;2545;50.892;5.740;2023-11-21T10:31:49;66.73;;;22.73;;
5052;SDS011;2545;50.892;5.740;2023-11-21T10:34:16;57.60;;;22.73;;
5052;SDS011;2545;50.892;5.740;2023-11-21T10:36:43;54.80;;;19.90;;
5052;SDS011;2545;50.892;5.740;2023-11-21T10:39:08;52.50;;;20.03;;
5052;SDS011;2545;50.892;5.740;2023-11-21T10:41:37;56.60;;;20.13;;
5052;SDS011;2545;50.892;5.740;2023-11-21T10:44:03;62.03;;;21.10;;
5052;SDS011;2545;50.892;5.740;2023-11-21T10:46:32;59.10;;;20.33;;
5052;SDS011;2545;50.892;5.740;2023-11-21T10:48:57;58.97;;;21.43;;
5052;SDS011;2545;50.892;5.740;2023-11-21T10:51:23;61.03;;;21.10;;
5052;SDS011;2545;50.892;5.740;2023-11-21T10:53:51;58.80;;;21.23;;
5052;SDS011;2545;50.892;5.740;2023-11-21T10:56:18;69.07;;;21.30;;
5052;SDS011;2545;50.892;5.740;2023-11-21T10:58:44;67.33;;;20.67;;
5052;SDS011;2545;50.892;5.740;2023-11-21T11:01:10;55.83;;;20.90;;
5052;SDS011;2545;50.892;5.740;2023-11-21T11:03:39;61.90;;;20.63;;
5052;SDS011;2545;50.892;5.740;2023-11-21T11:06:06;67.67;;;22.00;;
5052;SDS011;2545;50.892;5.740;2023-11-21T11:08:36;61.60;;;20.33;;
5052;SDS011;2545;50.892;5.740;2023-11-21T11:11:04;66.40;;;21.67;;
5052;SDS011;2545;50.892;5.740;2023-11-21T11:13:30;52.07;;;19.63;;
5052;SDS011;2545;50.892;5.740;2023-11-21T11:15:59;58.97;;;21.50;;
5052;SDS011;2545;50.892;5.740;2023-11-21T11:18:27;59.20;;;21.60;;
5052;SDS011;2545;50.892;5.740;2023-11-21T11:20:58;54.53;;;22.00;;
5052;SDS011;2545;50.892;5.740;2023-11-21T11:29:54;58.40;;;20.53;;
5052;SDS011;2545;50.892;5.740;2023-11-21T11:32:16;63.70;;;20.90;;
5052;SDS011;2545;50.892;5.740;2023-11-21T11:35:13;72.10;;;22.70;;
5052;SDS011;2545;50.892;5.740;2023-11-21T11:37:44;56.80;;;20.80;;
5052;SDS011;2545;50.892;5.740;2023-11-21T11:40:12;61.93;;;21.90;;
5052;SDS011;2545;50.892;5.740;2023-11-21T11:42:38;62.13;;;22.07;;
5052;SDS011;2545;50.892;5.740;2023-11-21T11:45:17;78.90;;;22.47;;
5052;SDS011;2545;50.892;5.740;2023-11-21T11:47:44;77.73;;;22.43;;
5052;SDS011;2545;50.892;5.740;2023-11-21T11:50:13;73.80;;;22.97;;
5052;SDS011;2545;50.892;5.740;2023-11-21T11:52:45;70.73;;;24.03;;
5052;SDS011;2545;50.892;5.740;2023-11-21T11:55:13;70.50;;;23.77;;
5052;SDS011;2545;50.892;5.740;2023-11-21T11:57:43;65.33;;;24.30;;
5052;SDS011;2545;50.892;5.740;2023-11-21T12:02:41;60.53;;;21.17;;
5052;SDS011;2545;50.892;5.740;2023-11-21T12:05:09;59.10;;;19.67;;
5052;SDS011;2545;50.892;5.740;2023-11-21T12:07:54;68.90;;;22.43;;
5052;SDS011;2545;50.892;5.740;2023-11-21T12:10:25;58.20;;;20.07;;
5052;SDS011;2545;50.892;5.740;2023-11-21T12:13:00;60.17;;;20.63;;
5052;SDS011;2545;50.892;5.740;2023-11-21T12:15:26;55.00;;;19.17;;
5052;SDS011;2545;50.892;5.740;2023-11-21T12:17:54;53.47;;;20.80;;
5052;SDS011;2545;50.892;5.740;2023-11-21T12:20:20;46.70;;;18.63;;
5052;SDS011;2545;50.892;5.740;2023-11-21T12:22:48;42.73;;;16.87;;
5052;SDS011;2545;50.892;5.740;2023-11-21T12:25:17;51.10;;;18.03;;
5052;SDS011;2545;50.892;5.740;2023-11-21T12:27:48;46.07;;;17.17;;
5052;SDS011;2545;50.892;5.740;2023-11-21T12:30:15;47.27;;;17.07;;
5052;SDS011;2545;50.892;5.740;2023-11-21T12:32:42;48.57;;;18.57;;
5052;SDS011;2545;50.892;5.740;2023-11-21T12:35:09;47.43;;;18.50;;
5052;SDS011;2545;50.892;5.740;2023-11-21T12:37:39;61.73;;;19.43;;
5052;SDS011;2545;50.892;5.740;2023-11-21T12:40:08;55.77;;;20.03;;
5052;SDS011;2545;50.892;5.740;2023-11-21T12:42:37;44.83;;;17.93;;
5052;SDS011;2545;50.892;5.740;2023-11-21T12:47:43;43.13;;;17.57;;
5052;SDS011;2545;50.892;5.740;2023-11-21T12:50:10;41.20;;;17.10;;
5052;SDS011;2545;50.892;5.740;2023-11-21T12:52:45;42.80;;;17.43;;
5052;SDS011;2545;50.892;5.740;2023-11-21T12:55:17;52.90;;;18.37;;
5052;SDS011;2545;50.892;5.740;2023-11-21T12:57:43;48.83;;;18.37;;
5052;SDS011;2545;50.892;5.740;2023-11-21T13:00:10;44.83;;;18.77;;
5052;SDS011;2545;50.892;5.740;2023-11-21T13:02:38;61.73;;;19.30;;
5052;SDS011;2545;50.892;5.740;2023-11-21T13:05:07;46.43;;;18.63;;
5052;SDS011;2545;50.892;5.740;2023-11-21T13:07:41;43.37;;;18.13;;
5052;SDS011;2545;50.892;5.740;2023-11-21T13:10:12;45.43;;;17.00;;
5052;SDS011;2545;50.892;5.740;2023-11-21T13:12:44;40.07;;;16.80;;
5052;SDS011;2545;50.892;5.740;2023-11-21T13:15:13;38.40;;;17.00;;
5052;SDS011;2545;50.892;5.740;2023-11-21T13:17:43;43.60;;;16.97;;
5052;SDS011;2545;50.892;5.740;2023-11-21T13:20:12;44.23;;;17.07;;
5052;SDS011;2545;50.892;5.740;2023-11-21T13:22:45;43.90;;;17.13;;
5052;SDS011;2545;50.892;5.740;2023-11-21T13:25:14;39.00;;;17.40;;
5052;SDS011;2545;50.892;5.740;2023-11-21T13:27:43;41.00;;;17.00;;
5052;SDS011;2545;50.892;5.740;2023-11-21T13:30:10;47.80;;;19.40;;
5052;SDS011;2545;50.892;5.740;2023-11-21T13:32:40;42.40;;;15.67;;
5052;SDS011;2545;50.892;5.740;2023-11-21T13:35:05;47.30;;;17.93;;
5052;SDS011;2545;50.892;5.740;2023-11-21T13:37:37;54.00;;;19.27;;
5052;SDS011;2545;50.892;5.740;2023-11-21T13:40:02;49.23;;;18.47;;
5052;SDS011;2545;50.892;5.740;2023-11-21T13:42:34;43.50;;;16.60;;
5052;SDS011;2545;50.892;5.740;2023-11-21T13:45:00;38.60;;;16.87;;
5052;SDS011;2545;50.892;5.740;2023-11-21T13:47:25;53.90;;;15.93;;
5052;SDS011;2545;50.892;5.740;2023-11-21T13:49:54;33.13;;;14.00;;
5052;SDS011;2545;50.892;5.740;2023-11-21T13:52:19;33.73;;;16.33;;
5052;SDS011;2545;50.892;5.740;2023-11-21T13:54:47;30.37;;;13.33;;
5052;SDS011;2545;50.892;5.740;2023-11-21T13:57:13;36.67;;;14.70;;
5052;SDS011;2545;50.892;5.740;2023-11-21T13:59:38;38.67;;;14.40;;
5052;SDS011;2545;50.892;5.740;2023-11-21T14:02:04;31.33;;;14.10;;
5052;SDS011;2545;50.892;5.740;2023-11-21T14:04:43;38.30;;;14.37;;
5052;SDS011;2545;50.892;5.740;2023-11-21T14:07:19;32.90;;;13.60;;
5052;SDS011;2545;50.892;5.740;2023-11-21T14:10:04;24.80;;;12.70;;
5052;SDS011;2545;50.892;5.740;2023-11-21T14:12:32;29.07;;;13.37;;
5052;SDS011;2545;50.892;5.740;2023-11-21T14:15:01;28.80;;;13.83;;
5052;SDS011;2545;50.892;5.740;2023-11-21T14:17:29;34.90;;;14.33;;
5052;SDS011;2545;50.892;5.740;2023-11-21T14:19:55;27.07;;;13.67;;
5052;SDS011;2545;50.892;5.740;2023-11-21T14:22:21;25.23;;;13.30;;
5052;SDS011;2545;50.892;5.740;2023-11-21T14:24:46;27.57;;;13.13;;
5052;SDS011;2545;50.892;5.740;2023-11-21T14:27:12;32.73;;;15.00;;
5052;SDS011;2545;50.892;5.740;2023-11-21T14:29:38;24.57;;;13.80;;
5052;SDS011;2545;50.892;5.740;2023-11-21T14:32:07;31.87;;;14.67;;
5052;SDS011;2545;50.892;5.740;2023-11-21T14:34:33;32.10;;;15.20;;
5052;SDS011;2545;50.892;5.740;2023-11-21T14:36:58;26.73;;;14.80;;
5052;SDS011;2545;50.892;5.740;2023-11-21T14:39:23;35.67;;;16.47;;
5052;SDS011;2545;50.892;5.740;2023-11-21T14:41:51;26.90;;;14.33;;
5052;SDS011;2545;50.892;5.740;2023-11-21T14:44:18;37.73;;;16.30;;
5052;SDS011;2545;50.892;5.740;2023-11-21T14:46:43;36.37;;;14.40;;
5052;SDS011;2545;50.892;5.740;2023-11-21T14:49:11;30.13;;;14.53;;
5052;SDS011;2545;50.892;5.740;2023-11-21T14:51:49;31.90;;;15.83;;
5052;SDS011;2545;50.892;5.740;2023-11-21T14:54:38;36.77;;;15.73;;
5052;SDS011;2545;50.892;5.740;2023-11-21T14:57:05;35.80;;;16.83;;
5052;SDS011;2545;50.892;5.740;2023-11-21T14:59:36;27.73;;;13.57;;
5052;SDS011;2545;50.892;5.740;2023-11-21T15:02:02;36.50;;;15.17;;
5052;SDS011;2545;50.892;5.740;2023-11-21T15:04:40;30.27;;;13.30;;
5052;SDS011;2545;50.892;5.740;2023-11-21T15:07:08;27.10;;;13.57;;
5052;SDS011;2545;50.892;5.740;2023-11-21T15:09:36;25.90;;;12.80;;
5052;SDS011;2545;50.892;5.740;2023-11-21T15:12:06;31.20;;;13.10;;
5052;SDS011;2545;50.892;5.740;2023-11-21T15:14:40;25.03;;;12.27;;
5052;SDS011;2545;50.892;5.740;2023-11-21T15:17:16;26.27;;;13.20;;
5052;SDS011;2545;50.892;5.740;2023-11-21T15:19:49;30.77;;;14.37;;
5052;SDS011;2545;50.892;5.740;2023-11-21T15:22:15;32.30;;;13.50;;
5052;SDS011;2545;50.892;5.740;2023-11-21T15:24:43;29.30;;;15.03;;
5052;SDS011;2545;50.892;5.740;2023-11-21T15:27:11;35.13;;;13.77;;
5052;SDS011;2545;50.892;5.740;2023-11-21T15:29:38;28.23;;;14.50;;
5052;SDS011;2545;50.892;5.740;2023-11-21T15:32:05;44.30;;;14.53;;
5052;SDS011;2545;50.892;5.740;2023-11-21T15:34:31;33.67;;;15.00;;
5052;SDS011;2545;50.892;5.740;2023-11-21T15:36:57;37.67;;;15.80;;
5052;SDS011;2545;50.892;5.740;2023-11-21T15:39:23;30.50;;;14.73;;
5052;SDS011;2545;50.892;5.740;2023-11-21T15:41:50;37.97;;;15.53;;
5052;SDS011;2545;50.892;5.740;2023-11-21T15:44:16;35.23;;;14.97;;
5052;SDS011;2545;50.892;5.740;2023-11-21T15:46:41;35.00;;;15.83;;
5052;SDS011;2545;50.892;5.740;2023-11-21T15:49:07;35.97;;;15.27;;
5052;SDS011;2545;50.892;5.740;2023-11-21T15:51:38;35.43;;;15.30;;
5052;SDS011;2545;50.892;5.740;2023-11-21T15:54:05;40.57;;;16.20;;
5052;SDS011;2545;50.892;5.740;2023-11-21T15:56:30;34.50;;;15.47;;
5052;SDS011;2545;50.892;5.740;2023-11-21T15:58:56;32.60;;;14.50;;
5052;SDS011;2545;50.892;5.740;2023-11-21T16:01:21;33.60;;;15.90;;
5052;SDS011;2545;50.892;5.740;2023-11-21T16:03:47;36.93;;;17.23;;
5052;SDS011;2545;50.892;5.740;2023-11-21T16:06:13;36.73;;;15.40;;
5052;SDS011;2545;50.892;5.740;2023-11-21T16:08:40;35.73;;;17.30;;
5052;SDS011;2545;50.892;5.740;2023-11-21T16:11:05;35.50;;;15.90;;
5052;SDS011;2545;50.892;5.740;2023-11-21T16:13:31;40.07;;;17.20;;
5052;SDS011;2545;50.892;5.740;2023-11-21T16:15:57;35.63;;;14.90;;
5052;SDS011;2545;50.892;5.740;2023-11-21T16:18:22;34.20;;;15.43;;
5052;SDS011;2545;50.892;5.740;2023-11-21T16:20:48;39.17;;;15.23;;
5052;SDS011;2545;50.892;5.740;2023-11-21T16:23:15;29.53;;;14.53;;
5052;SDS011;2545;50.892;5.740;2023-11-21T16:25:41;32.57;;;14.13;;
5052;SDS011;2545;50.892;5.740;2023-11-21T16:28:06;32.60;;;13.67;;
5052;SDS011;2545;50.892;5.740;2023-11-21T16:30:32;25.10;;;14.23;;
5052;SDS011;2545;50.892;5.740;2023-11-21T16:33:03;33.97;;;15.77;;
5052;SDS011;2545;50.892;5.740;2023-11-21T16:35:29;30.07;;;15.83;;
5052;SDS011;2545;50.892;5.740;2023-11-21T16:37:54;27.87;;;15.00;;
5052;SDS011;2545;50.892;5.740;2023-11-21T16:40:21;26.97;;;14.40;;
5052;SDS011;2545;50.892;5.740;2023-11-21T16:42:46;35.57;;;15.07;;
5052;SDS011;2545;50.892;5.740;2023-11-21T16:45:12;26.40;;;14.37;;
5052;SDS011;2545;50.892;5.740;2023-11-21T16:47:37;33.03;;;15.80;;
5052;SDS011;2545;50.892;5.740;2023-11-21T16:50:05;34.37;;;14.40;;
5052;SDS011;2545;50.892;5.740;2023-11-21T16:52:30;31.90;;;15.10;;
5052;SDS011;2545;50.892;5.740;2023-11-21T16:54:56;26.93;;;15.03;;
5052;SDS011;2545;50.892;5.740;2023-11-21T16:57:21;25.57;;;14.67;;
5052;SDS011;2545;50.892;5.740;2023-11-21T16:59:47;27.20;;;14.83;;
5052;SDS011;2545;50.892;5.740;2023-11-21T17:02:16;25.40;;;14.50;;
5052;SDS011;2545;50.892;5.740;2023-11-21T17:04:43;25.40;;;15.23;;
5052;SDS011;2545;50.892;5.740;2023-11-21T17:07:10;24.40;;;14.30;;
5052;SDS011;2545;50.892;5.740;2023-11-21T17:09:36;26.70;;;14.13;;
5052;SDS011;2545;50.892;5.740;2023-11-21T17:12:03;23.47;;;13.90;;
5052;SDS011;2545;50.892;5.740;2023-11-21T17:14:30;35.23;;;14.97;;
5052;SDS011;2545;50.892;5.740;2023-11-21T17:16:55;26.90;;;14.83;;
5052;SDS011;2545;50.892;5.740;2023-11-21T17:19:21;30.63;;;15.27;;
5052;SDS011;2545;50.892;5.740;2023-11-21T17:21:46;28.17;;;15.10;;
5052;SDS011;2545;50.892;5.740;2023-11-21T17:24:12;24.60;;;15.23;;
5052;SDS011;2545;50.892;5.740;2023-11-21T17:26:37;27.50;;;15.43;;
5052;SDS011;2545;50.892;5.740;2023-11-21T17:29:02;24.57;;;13.70;;
5052;SDS011;2545;50.892;5.740;2023-11-21T17:31:28;26.33;;;13.97;;
5052;SDS011;2545;50.892;5.740;2023-11-21T17:33:54;33.33;;;17.27;;
5052;SDS011;2545;50.892;5.740;2023-11-21T17:36:20;27.90;;;16.03;;
5052;SDS011;2545;50.892;5.740;2023-11-21T17:38:45;29.33;;;15.10;;
5052;SDS011;2545;50.892;5.740;2023-11-21T17:41:11;32.20;;;16.70;;
5052;SDS011;2545;50.892;5.740;2023-11-21T17:43:37;37.40;;;15.80;;
5052;SDS011;2545;50.892;5.740;2023-11-21T17:46:05;29.50;;;14.90;;
5052;SDS011;2545;50.892;5.740;2023-11-21T17:48:31;30.47;;;14.67;;
5052;SDS011;2545;50.892;5.740;2023-11-21T17:50:57;28.87;;;14.90;;
5052;SDS011;2545;50.892;5.740;2023-11-21T17:53:22;32.40;;;15.40;;
5052;SDS011;2545;50.892;5.740;2023-11-21T17:55:49;35.07;;;17.63;;
5052;SDS011;2545;50.892;5.740;2023-11-21T17:58:15;38.73;;;17.90;;
5052;SDS011;2545;50.892;5.740;2023-11-21T18:00:40;33.87;;;16.67;;
5052;SDS011;2545;50.892;5.740;2023-11-21T18:03:06;37.23;;;17.17;;
5052;SDS011;2545;50.892;5.740;2023-11-21T18:05:31;32.63;;;16.50;;
5052;SDS011;2545;50.892;5.740;2023-11-21T18:07:56;33.23;;;16.10;;
5052;SDS011;2545;50.892;5.740;2023-11-21T18:10:22;30.00;;;16.60;;
5052;SDS011;2545;50.892;5.740;2023-11-21T18:12:47;30.97;;;15.60;;
5052;SDS011;2545;50.892;5.740;2023-11-21T18:15:13;32.60;;;16.00;;
5052;SDS011;2545;50.892;5.740;2023-11-21T18:17:39;31.03;;;15.23;;
5052;SDS011;2545;50.892;5.740;2023-11-21T18:20:05;33.27;;;15.40;;
5052;SDS011;2545;50.892;5.740;2023-11-21T18:22:34;26.03;;;14.00;;
5052;SDS011;2545;50.892;5.740;2023-11-21T18:25:00;34.80;;;15.80;;
5052;SDS011;2545;50.892;5.740;2023-11-21T18:27:25;31.43;;;16.20;;
5052;SDS011;2545;50.892;5.740;2023-11-21T18:29:58;28.40;;;14.33;;
5052;SDS011;2545;50.892;5.740;2023-11-21T18:32:25;29.00;;;15.03;;
5052;SDS011;2545;50.892;5.740;2023-11-21T18:34:51;28.80;;;16.30;;
5052;SDS011;2545;50.892;5.740;2023-11-21T18:37:17;30.37;;;14.80;;
5052;SDS011;2545;50.892;5.740;2023-11-21T18:39:43;33.43;;;16.63;;
5052;SDS011;2545;50.892;5.740;2023-11-21T18:42:09;32.70;;;16.07;;
5052;SDS011;2545;50.892;5.740;2023-11-21T18:44:35;29.93;;;15.37;;
5052;SDS011;2545;50.892;5.740;2023-11-21T18:47:01;25.73;;;14.43;;
5052;SDS011;2545;50.892;5.740;2023-11-21T18:49:26;33.43;;;14.47;;
5052;SDS011;2545;50.892;5.740;2023-11-21T18:51:52;26.47;;;14.20;;
5052;SDS011;2545;50.892;5.740;2023-11-21T18:54:17;25.57;;;13.17;;
5052;SDS011;2545;50.892;5.740;2023-11-21T18:56:42;23.53;;;14.37;;
5052;SDS011;2545;50.892;5.740;2023-11-21T18:59:11;26.00;;;13.57;;
5052;SDS011;2545;50.892;5.740;2023-11-21T19:01:36;23.30;;;12.57;;
5052;SDS011;2545;50.892;5.740;2023-11-21T19:04:03;20.90;;;13.10;;
5052;SDS011;2545;50.892;5.740;2023-11-21T19:06:29;23.73;;;12.73;;
5052;SDS011;2545;50.892;5.740;2023-11-21T19:08:54;20.37;;;10.57;;
5052;SDS011;2545;50.892;5.740;2023-11-21T19:11:20;26.57;;;11.40;;
5052;SDS011;2545;50.892;5.740;2023-11-21T19:13:47;18.90;;;11.40;;
5052;SDS011;2545;50.892;5.740;2023-11-21T19:16:15;18.07;;;10.27;;
5052;SDS011;2545;50.892;5.740;2023-11-21T19:18:41;14.17;;;9.63;;
5052;SDS011;2545;50.892;5.740;2023-11-21T19:21:13;15.90;;;9.90;;
5052;SDS011;2545;50.892;5.740;2023-11-21T19:23:43;15.07;;;9.60;;
5052;SDS011;2545;50.892;5.740;2023-11-21T19:26:08;17.17;;;10.70;;
5052;SDS011;2545;50.892;5.740;2023-11-21T19:28:34;19.17;;;11.50;;
5052;SDS011;2545;50.892;5.740;2023-11-21T19:30:59;22.00;;;12.27;;
5052;SDS011;2545;50.892;5.740;2023-11-21T19:33:26;19.23;;;11.17;;
5052;SDS011;2545;50.892;5.740;2023-11-21T19:35:52;20.17;;;12.60;;
5052;SDS011;2545;50.892;5.740;2023-11-21T19:38:18;24.20;;;12.27;;
5052;SDS011;2545;50.892;5.740;2023-11-21T19:40:44;23.13;;;12.40;;
5052;SDS011;2545;50.892;5.740;2023-11-21T19:43:10;26.20;;;15.43;;
5052;SDS011;2545;50.892;5.740;2023-11-21T19:45:35;25.87;;;15.20;;
5052;SDS011;2545;50.892;5.740;2023-11-21T19:48:01;21.87;;;14.70;;
5052;SDS011;2545;50.892;5.740;2023-11-21T19:50:27;23.20;;;14.73;;
5052;SDS011;2545;50.892;5.740;2023-11-21T19:52:53;23.37;;;13.90;;
5052;SDS011;2545;50.892;5.740;2023-11-21T19:55:18;23.13;;;13.80;;
5052;SDS011;2545;50.892;5.740;2023-11-21T19:57:43;20.70;;;13.30;;
5052;SDS011;2545;50.892;5.740;2023-11-21T20:00:09;18.60;;;12.13;;
5052;SDS011;2545;50.892;5.740;2023-11-21T20:02:36;22.30;;;13.67;;
5052;SDS011;2545;50.892;5.740;2023-11-21T20:05:02;25.37;;;13.73;;
5052;SDS011;2545;50.892;5.740;2023-11-21T20:07:27;20.30;;;14.13;;
5052;SDS011;2545;50.892;5.740;2023-11-21T20:09:56;22.80;;;13.77;;
5052;SDS011;2545;50.892;5.740;2023-11-21T20:12:21;19.40;;;12.80;;
5052;SDS011;2545;50.892;5.740;2023-11-21T20:14:46;20.03;;;12.70;;
5052;SDS011;2545;50.892;5.740;2023-11-21T20:17:12;19.80;;;13.87;;
5052;SDS011;2545;50.892;5.740;2023-11-21T20:19:39;30.03;;;14.70;;
5052;SDS011;2545;50.892;5.740;2023-11-21T20:22:06;21.57;;;13.77;;
5052;SDS011;2545;50.892;5.740;2023-11-21T20:24:31;22.50;;;13.20;;
5052;SDS011;2545;50.892;5.740;2023-11-21T20:26:59;27.50;;;13.33;;
5052;SDS011;2545;50.892;5.740;2023-11-21T20:29:27;20.30;;;13.77;;
5052;SDS011;2545;50.892;5.740;2023-11-21T20:31:53;22.30;;;13.23;;
5052;SDS011;2545;50.892;5.740;2023-11-21T20:34:18;18.43;;;11.53;;
5052;SDS011;2545;50.892;5.740;2023-11-21T20:36:46;16.47;;;11.90;;
5052;SDS011;2545;50.892;5.740;2023-11-21T20:39:13;14.97;;;11.47;;
5052;SDS011;2545;50.892;5.740;2023-11-21T20:41:40;15.07;;;10.27;;
5052;SDS011;2545;50.892;5.740;2023-11-21T20:44:06;18.50;;;10.97;;
5052;SDS011;2545;50.892;5.740;2023-11-21T20:46:32;16.90;;;10.23;;
5052;SDS011;2545;50.892;5.740;2023-11-21T20:49:03;19.73;;;11.30;;
5052;SDS011;2545;50.892;5.740;2023-11-21T20:51:28;17.43;;;11.57;;
5052;SDS011;2545;50.892;5.740;2023-11-21T20:53:54;16.20;;;10.50;;
5052;SDS011;2545;50.892;5.740;2023-11-21T20:56:19;15.27;;;9.07;;
5052;SDS011;2545;50.892;5.740;2023-11-21T20:58:44;12.17;;;9.40;;
5052;SDS011;2545;50.892;5.740;2023-11-21T21:01:10;15.00;;;9.77;;
5052;SDS011;2545;50.892;5.740;2023-11-21T21:03:36;16.73;;;10.03;;
5052;SDS011;2545;50.892;5.740;2023-11-21T21:06:02;14.33;;;9.40;;
5052;SDS011;2545;50.892;5.740;2023-11-21T21:08:28;17.90;;;10.27;;
5052;SDS011;2545;50.892;5.740;2023-11-21T21:10:53;25.73;;;10.43;;
5052;SDS011;2545;50.892;5.740;2023-11-21T21:13:19;18.70;;;10.20;;
5052;SDS011;2545;50.892;5.740;2023-11-21T21:15:44;19.00;;;11.17;;
5052;SDS011;2545;50.892;5.740;2023-11-21T21:18:13;17.97;;;10.90;;
5052;SDS011;2545;50.892;5.740;2023-11-21T21:20:38;15.20;;;10.50;;
5052;SDS011;2545;50.892;5.740;2023-11-21T21:23:04;23.23;;;11.57;;
5052;SDS011;2545;50.892;5.740;2023-11-21T21:25:29;21.20;;;12.50;;
5052;SDS011;2545;50.892;5.740;2023-11-21T21:27:55;23.43;;;11.40;;
5052;SDS011;2545;50.892;5.740;2023-11-21T21:30:21;16.50;;;10.50;;
5052;SDS011;2545;50.892;5.740;2023-11-21T21:32:48;18.20;;;11.90;;
5052;SDS011;2545;50.892;5.740;2023-11-21T21:35:13;24.00;;;11.60;;
5052;SDS011;2545;50.892;5.740;2023-11-21T21:37:39;25.80;;;12.13;;
5052;SDS011;2545;50.892;5.740;2023-11-21T21:40:05;19.30;;;11.10;;
5052;SDS011;2545;50.892;5.740;2023-11-21T21:42:34;19.77;;;11.90;;
5052;SDS011;2545;50.892;5.740;2023-11-21T21:44:59;24.60;;;12.70;;
5052;SDS011;2545;50.892;5.740;2023-11-21T21:47:25;20.10;;;12.40;;
5052;SDS011;2545;50.892;5.740;2023-11-21T21:49:50;22.40;;;12.40;;
5052;SDS011;2545;50.892;5.740;2023-11-21T21:52:16;20.60;;;12.40;;
5052;SDS011;2545;50.892;5.740;2023-11-21T21:54:41;26.13;;;13.50;;
5052;SDS011;2545;50.892;5.740;2023-11-21T21:57:07;23.10;;;13.67;;
5052;SDS011;2545;50.892;5.740;2023-11-21T21:59:33;21.87;;;13.37;;
5052;SDS011;2545;50.892;5.740;2023-11-21T22:01:58;24.13;;;14.30;;